Historique des stations

Station météo de Luçay-le-Libre

Altitude de la station : 138 m







Données météorologiques pour le 06/12/2022
Date
Heure
Températures Humidité Point de rosée Vitesse
du vent
Direction Rafales Windchill Pression Pluviométrie
Cumul
Date
Heure
Températures Humidité Point de rosée Vitesse
du vent
Direction Rafales Windchill Pression Pluviométrie
Cumul
06/12/2022 17:494.2 °C88 %2.2 °C-N3 km/h4.4 1020 hPa-
06/12/2022 17:464.2 °C88 %2.2 °C-NNO11 km/h4.4 1020 hPa-
06/12/2022 17:344.2 °C88 %2.2 °C2 km/hENE8 km/h3.9 1020 hPa-
06/12/2022 17:314.2 °C88 %2.2 °C-E11 km/h4.4 1020 hPa-
06/12/2022 17:194.2 °C89 %2.8 °C2 km/hN3 km/h3.9 1020 hPa-
06/12/2022 17:164.2 °C89 %2.8 °C2 km/hNNE11 km/h3.9 1020 hPa-
06/12/2022 17:044.3 °C89 %2.8 °C-N3 km/h4.4 1020 hPa-
06/12/2022 17:014.3 °C89 %2.8 °C-NNE11 km/h4.4 1020 hPa-
06/12/2022 16:504.3 °C89 %2.8 °C-N6 km/h4.4 1020 hPa-
06/12/2022 16:464.3 °C89 %2.8 °C3 km/hENE11 km/h3.3 1020 hPa-
06/12/2022 16:354.4 °C89 %2.8 °C2 km/hN5 km/h3.9 1020 hPa-
06/12/2022 16:314.4 °C88 %2.8 °C2 km/hNNO11 km/h3.9 1020 hPa-
06/12/2022 16:204.5 °C88 %2.8 °C3 km/hN3 km/h3.3 1020 hPa-
06/12/2022 16:164.5 °C88 %2.8 °C-NNO11 km/h4.4 1020 hPa-
06/12/2022 16:054.6 °C88 %2.8 °C-NO6 km/h4.4 1019 hPa-
06/12/2022 16:014.6 °C89 %2.8 °C2 km/hNO11 km/h3.9 1020 hPa-
06/12/2022 15:504.6 °C89 %2.8 °C2 km/hNNO6 km/h3.9 1019 hPa-
06/12/2022 15:464.6 °C89 %2.8 °C-N11 km/h4.4 1020 hPa-
06/12/2022 15:344.6 °C89 %2.8 °C3 km/hNO6 km/h3.3 1019 hPa-
06/12/2022 15:314.5 °C89 %2.8 °C3 km/hNNO11 km/h3.3 1020 hPa-
06/12/2022 15:204.4 °C89 %2.8 °C-NNE5 km/h4.4 1019 hPa-
06/12/2022 15:164.5 °C89 %2.8 °C-NNO11 km/h4.4 1019 hPa-
06/12/2022 15:054.4 °C90 %2.8 °C5 km/hNNO6 km/h3.3 1020 hPa-
06/12/2022 15:014.5 °C90 %3.3 °C5 km/hNNE11 km/h3.3 1020 hPa-
06/12/2022 14:494.6 °C90 %3.3 °C5 km/hNNO6 km/h3.3 1020 hPa-
06/12/2022 14:444.6 °C90 %3.3 °C3 km/hNNO11 km/h3.3 1020 hPa-
06/12/2022 14:344.5 °C90 %3.3 °C5 km/hNNO6 km/h3.3 1020 hPa-
06/12/2022 14:304.6 °C90 %3.3 °C5 km/hN11 km/h3.3 1020 hPa-
06/12/2022 14:194.6 °C90 %3.3 °C3 km/hNNO8 km/h3.3 1020 hPa-
06/12/2022 14:154.6 °C90 %3.3 °C3 km/hNNO11 km/h3.3 1020 hPa-
06/12/2022 14:044.6 °C90 %3.3 °C5 km/hNNO10 km/h3.3 1020 hPa-
06/12/2022 14:004.7 °C90 %3.3 °C3 km/hNNO11 km/h3.3 1020 hPa-
06/12/2022 13:544.7 °C90 %3.3 °C5 km/hNNO10 km/h3.3 1020 hPa-
06/12/2022 13:454.7 °C90 %3.3 °C6 km/hN11 km/h3.9 1020 hPa-
06/12/2022 13:394.7 °C90 %3.3 °C3 km/hNNO8 km/h4.4 1020 hPa-
06/12/2022 13:304.8 °C90 %3.3 °C6 km/hN10 km/h3.9 1020 hPa-
06/12/2022 13:244.8 °C90 %3.3 °C-NNO10 km/h5.0 1020 hPa-
06/12/2022 13:154.9 °C90 %3.3 °C10 km/hNNO10 km/h2.8 1020 hPa-
06/12/2022 13:094.9 °C90 %3.3 °C3 km/hNNO10 km/h4.4 1020 hPa-
06/12/2022 13:015.0 °C90 %3.3 °C5 km/hNNO10 km/h4.4 1020 hPa-
06/12/2022 12:545.0 °C90 %3.3 °C3 km/hNNO6 km/h4.4 1020 hPa-
06/12/2022 12:465.1 °C90 %3.3 °C3 km/hNO10 km/h4.4 1020 hPa-
06/12/2022 12:345.0 °C90 %3.3 °C2 km/hNNE8 km/h5.0 1020 hPa-
06/12/2022 12:304.9 °C90 %3.3 °C3 km/hN10 km/h4.4 1020 hPa-
06/12/2022 12:194.8 °C90 %3.3 °C2 km/hNNO8 km/h5.0 1020 hPa-
06/12/2022 12:154.8 °C90 %3.3 °C3 km/hNNO10 km/h4.4 1020 hPa-
06/12/2022 12:044.8 °C91 %3.3 °C3 km/hNNO6 km/h4.4 1020 hPa-
06/12/2022 12:004.8 °C91 %3.3 °C3 km/hNNE10 km/h4.4 1020 hPa-
06/12/2022 11:494.7 °C91 %3.3 °C3 km/hN5 km/h3.3 1020 hPa-
06/12/2022 11:464.7 °C91 %3.3 °C2 km/hNO10 km/h3.9 1020 hPa-
06/12/2022 11:344.6 °C91 %3.3 °C-ENE6 km/h4.4 1020 hPa-
06/12/2022 11:314.6 °C92 %3.3 °C-E10 km/h4.4 1020 hPa-
06/12/2022 11:194.4 °C92 %3.3 °C2 km/hNO5 km/h3.9 1020 hPa-
06/12/2022 11:164.4 °C92 %3.3 °C-NNO10 km/h4.4 1021 hPa-
06/12/2022 11:044.3 °C92 %3.3 °C-NNO6 km/h4.4 1021 hPa-
06/12/2022 11:014.3 °C92 %3.3 °C3 km/hNE10 km/h3.3 1021 hPa-
06/12/2022 10:494.1 °C92 %2.8 °C-NNO6 km/h3.9 1021 hPa-
06/12/2022 10:464.2 °C93 %3.3 °C-N10 km/h4.4 1021 hPa-
06/12/2022 10:344.1 °C93 %3.3 °C-NNO6 km/h3.9 1021 hPa-
06/12/2022 10:314.1 °C93 %3.3 °C2 km/hNNO10 km/h3.3 1020 hPa-
06/12/2022 10:193.9 °C93 %2.8 °C-N5 km/h3.9 1020 hPa-
06/12/2022 10:163.9 °C93 %2.8 °C-N10 km/h3.9 1020 hPa-
06/12/2022 10:043.9 °C93 %2.8 °C-NO5 km/h3.9 1020 hPa-
06/12/2022 10:013.8 °C93 %2.8 °C-NNO10 km/h3.9 1020 hPa-
06/12/2022 09:503.8 °C93 %2.8 °C-NE5 km/h3.9 1020 hPa-
06/12/2022 09:463.8 °C93 %2.8 °C-NNO10 km/h3.9 1020 hPa-
06/12/2022 09:353.7 °C94 %2.8 °C-NNO3 km/h3.9 1020 hPa-
06/12/2022 09:313.7 °C94 %2.8 °C-N10 km/h3.9 1020 hPa-
06/12/2022 09:203.6 °C94 %2.8 °C-NO2 km/h3.3 1020 hPa-
06/12/2022 09:163.6 °C94 %2.8 °C-ENE10 km/h3.3 1020 hPa-
06/12/2022 09:053.6 °C94 %2.8 °C---3.3 1020 hPa-
06/12/2022 09:013.5 °C94 %2.8 °C-E10 km/h3.3 1020 hPa-
06/12/2022 08:503.4 °C94 %2.8 °C---3.3 1020 hPa-
06/12/2022 08:463.4 °C94 %2.8 °C-E10 km/h3.3 1020 hPa-
06/12/2022 08:353.4 °C94 %2.8 °C---3.3 1020 hPa-
06/12/2022 08:313.4 °C94 %2.8 °C-E10 km/h3.3 1020 hPa-
06/12/2022 08:203.5 °C94 %2.8 °C-ENE2 km/h3.3 1020 hPa-
06/12/2022 08:163.4 °C94 %2.8 °C-N10 km/h3.3 1020 hPa-
06/12/2022 08:053.5 °C94 %2.8 °C-ESE2 km/h3.3 1020 hPa-
06/12/2022 08:013.5 °C94 %2.8 °C2 km/hESE10 km/h2.8 1020 hPa-
06/12/2022 07:493.5 °C94 %2.8 °C-ENE3 km/h3.3 1020 hPa-
06/12/2022 07:443.4 °C94 %2.8 °C-E10 km/h3.3 1020 hPa-
06/12/2022 07:343.4 °C94 %2.8 °C-NNO3 km/h3.3 1020 hPa-
06/12/2022 07:303.4 °C94 %2.8 °C-E10 km/h3.3 1020 hPa-
06/12/2022 07:193.4 °C94 %2.8 °C-NNE5 km/h3.3 1020 hPa-
06/12/2022 07:153.4 °C94 %2.8 °C-ESE10 km/h3.3 1020 hPa-
06/12/2022 07:043.4 °C94 %2.8 °C-SE3 km/h3.3 1020 hPa-
06/12/2022 07:003.4 °C94 %2.8 °C-NE10 km/h3.3 1020 hPa-
06/12/2022 06:493.3 °C94 %2.8 °C-NNO3 km/h3.3 1020 hPa-
06/12/2022 06:453.4 °C94 %2.8 °C-NNO10 km/h3.3 1020 hPa-
06/12/2022 06:343.3 °C94 %2.8 °C-NE5 km/h3.3 1020 hPa-
06/12/2022 06:303.3 °C94 %2.8 °C-NO10 km/h3.3 1020 hPa-
06/12/2022 06:193.3 °C94 %2.8 °C-NNE3 km/h3.3 1020 hPa-
06/12/2022 06:153.3 °C94 %2.8 °C-NNE10 km/h3.3 1020 hPa-
06/12/2022 06:043.3 °C94 %2.8 °C-NE6 km/h3.3 1020 hPa-
06/12/2022 06:003.3 °C94 %2.8 °C-NO10 km/h3.3 1020 hPa-
06/12/2022 05:493.3 °C94 %2.8 °C-N5 km/h3.3 1020 hPa-
06/12/2022 05:453.3 °C94 %2.2 °C-N10 km/h3.3 1020 hPa-
06/12/2022 05:343.3 °C94 %2.8 °C-NO6 km/h3.3 1020 hPa-
06/12/2022 05:303.3 °C94 %2.2 °C-ENE10 km/h3.3 1020 hPa-
06/12/2022 05:193.3 °C94 %2.2 °C-NE8 km/h3.3 1020 hPa-
06/12/2022 05:163.3 °C94 %2.2 °C-ENE10 km/h3.3 1020 hPa-
06/12/2022 05:043.3 °C94 %2.8 °C-ENE6 km/h3.3 1020 hPa-
06/12/2022 05:013.3 °C94 %2.8 °C2 km/hNO10 km/h2.8 1020 hPa-
06/12/2022 04:493.4 °C94 %2.8 °C2 km/hNE3 km/h2.8 1020 hPa-
06/12/2022 04:463.4 °C94 %2.8 °C-ENE10 km/h3.3 1020 hPa-
06/12/2022 04:343.3 °C94 %2.8 °C3 km/hNNE8 km/h2.2 1020 hPa-
06/12/2022 04:313.4 °C94 %2.8 °C5 km/hNE10 km/h2.2 1020 hPa-
06/12/2022 04:203.3 °C94 %2.8 °C2 km/hE5 km/h2.8 1020 hPa-
06/12/2022 04:163.3 °C94 %2.8 °C2 km/hSE10 km/h2.8 1020 hPa-
06/12/2022 04:043.4 °C94 %2.8 °C2 km/hNE6 km/h2.8 1020 hPa-
06/12/2022 04:013.4 °C94 %2.8 °C2 km/hO10 km/h2.8 1020 hPa-
06/12/2022 03:503.4 °C94 %2.8 °C3 km/hNNE6 km/h2.2 1020 hPa-
06/12/2022 03:463.4 °C94 %2.8 °C2 km/hE6 km/h2.8 1020 hPa-
06/12/2022 03:343.4 °C95 %2.8 °C2 km/hNNO5 km/h2.8 1020 hPa-
06/12/2022 03:313.4 °C95 %2.8 °C-SO6 km/h3.3 1020 hPa-
06/12/2022 03:203.4 °C95 %2.8 °C3 km/hENE8 km/h2.2 1020 hPa-
06/12/2022 03:163.4 °C95 %2.8 °C2 km/hNNO6 km/h2.8 1020 hPa-
06/12/2022 03:053.5 °C95 %2.8 °C-N6 km/h3.3 1020 hPa-
06/12/2022 03:013.4 °C95 %2.8 °C-NNE5 km/h3.3 1020 hPa-
06/12/2022 02:503.3 °C95 %2.8 °C-O5 km/h3.3 1020 hPa-
06/12/2022 02:463.3 °C95 %2.8 °C3 km/hNO5 km/h2.2 1020 hPa-
06/12/2022 02:353.2 °C95 %2.2 °C-N5 km/h3.3 1020 hPa-
06/12/2022 02:313.2 °C95 %2.2 °C2 km/hNO5 km/h2.8 1020 hPa-
06/12/2022 02:202.9 °C95 %2.2 °C2 km/hNNO2 km/h2.2 1020 hPa-
06/12/2022 02:162.8 °C95 %2.2 °C-NO3 km/h2.8 1020 hPa-
06/12/2022 02:082.7 °C95 %2.2 °C-N2 km/h2.8 1020 hPa-
06/12/2022 02:012.6 °C94 %1.7 °C-NNO3 km/h2.8 1020 hPa-
06/12/2022 01:552.7 °C94 %1.7 °C---2.8 1020 hPa-
06/12/2022 01:462.7 °C94 %1.7 °C-ENE3 km/h2.8 1020 hPa-
06/12/2022 01:402.7 °C94 %1.7 °C---2.8 1020 hPa-
06/12/2022 01:312.8 °C94 %2.2 °C-ENE3 km/h2.8 1020 hPa-
06/12/2022 01:252.8 °C94 %2.2 °C---2.8 1021 hPa-
06/12/2022 01:152.8 °C94 %2.2 °C-NO3 km/h2.8 1021 hPa-
06/12/2022 01:092.9 °C94 %2.2 °C-NO2 km/h2.8 1021 hPa-
06/12/2022 01:003.1 °C94 %2.2 °C-NO3 km/h3.3 1021 hPa-
06/12/2022 00:543.0 °C94 %2.2 °C-NO2 km/h2.8 1021 hPa-
06/12/2022 00:452.9 °C94 %2.2 °C-NO3 km/h2.8 1021 hPa-
06/12/2022 00:342.8 °C94 %2.2 °C-NO2 km/h2.8 1021 hPa-
06/12/2022 00:302.6 °C94 %1.7 °C---2.8 1021 hPa-
06/12/2022 00:192.4 °C93 %1.7 °C---2.2 1021 hPa-
06/12/2022 00:152.4 °C93 %1.7 °C---2.2 1021 hPa-
06/12/2022 00:042.3 °C93 %1.1 °C---2.2 1021 hPa-
06/12/2022 00:002.3 °C93 %1.1 °C-ONO8 km/h2.2 1021 hPa0.2 mm


Minima :

Température : 2.3 °C
Humidité : 88 %
Point de rosée : 1.1 °C
Vent moyen : 2 km/h
Windchill : 2.2
Pression atm. : 1019 hPa
Maxima :

Température : 5.1 °C
Humidité : 95 %
Point de rosée : 3.3 °C
Vent moyen : 10 km/h
Windchill : 5.0
Pression atm. : 1021 hPa
Rafales max : 11 km/h
Cumul de pluie sur 24H : 0.2 mm

Luçay-le-Libre est une commune du département Indre (36).
La station météorologique du réseau de l'association la plus proche de Luçay-le-Libre est celle de Graçay



Icône Facebook Association Météo Centre Icône Twitter Association Météo Centre Icône Chaîne Youtube Association Météo Centre Icône contact Association Météo Centre Icône Insta Association Météo Centre